Time;durP1;ratioP1;P1;durP2;ratioP2;P2;SDS_P1;SDS_P2;PMS_P1;PMS_P2;Temp;Humidity;BMP_temperature;BMP_pressure;BME280_temperature;BME280_humidity;BME280_pressure;Samples;Min_cycle;Max_cycle;Signal;HPM_P1;HPM_P2
2022/09/16 00:01:13;;;;;;;568.58;517.88;;;15.10;99.90;;;15.19;100.00;99588.34;4969540;28;20203;-64
2022/09/16 00:03:42;;;;;;;585.33;532.72;;;;;;;15.12;100.00;99587.59;4969523;28;20222;-64
2022/09/16 00:06:27;;;;;;;564.70;514.03;;;15.00;99.90;;;15.09;100.00;99582.34;4967502;28;20685;-64
2022/09/16 00:09:02;;;;;;;566.92;515.55;;;15.00;99.90;;;15.12;100.00;99582.28;4968898;28;20222;-64
2022/09/16 00:11:33;;;;;;;567.83;516.47;;;15.00;99.90;;;15.09;100.00;99578.81;4989840;28;20282;-64
2022/09/16 00:14:02;;;;;;;565.40;514.38;;;15.00;99.90;;;15.10;100.00;99578.75;4985698;28;20218;-64
2022/09/16 00:16:31;;;;;;;575.00;523.90;;;;;;;15.10;100.00;99608.06;5000050;28;20208;-62
2022/09/16 00:18:59;;;;;;;574.05;522.38;;;15.00;99.90;;;15.05;100.00;99592.19;4964312;28;20217;-62
2022/09/16 00:21:28;;;;;;;567.03;516.65;;;14.90;99.90;;;15.08;100.00;99599.22;4986789;28;20207;-63
2022/09/16 00:23:57;;;;;;;570.25;518.42;;;15.00;99.90;;;15.11;100.00;99607.16;4997794;28;20233;-63
2022/09/16 00:26:25;;;;;;;568.95;518.55;;;;;;;15.05;100.00;99588.66;4978409;28;20207;-62
2022/09/16 00:28:53;;;;;;;566.45;515.83;;;;;;;15.09;100.00;99592.13;4967524;28;20220;-63
2022/09/16 00:31:21;;;;;;;573.17;522.08;;;;;;;15.03;100.00;99623.28;4985012;28;20211;-63
2022/09/16 00:33:49;;;;;;;568.13;517.55;;;;;;;15.04;100.00;99624.16;4986430;28;20238;-62
2022/09/16 00:36:19;;;;;;;572.25;521.10;;;15.00;99.90;;;15.03;100.00;99609.09;4966557;28;20238;-62
2022/09/16 00:38:56;;;;;;;589.78;536.67;;;15.00;99.90;;;15.04;100.00;99602.88;4983900;28;20306;-63
2022/09/16 00:41:32;;;;;;;573.60;521.83;;;15.00;99.90;;;14.99;100.00;99610.97;4983061;28;20207;-62
2022/09/16 00:44:03;;;;;;;558.83;507.77;;;15.00;99.90;;;14.92;100.00;99609.34;4970943;28;20233;-63
2022/09/16 00:46:37;;;;;;;564.17;513.75;;;14.90;99.90;;;14.90;100.00;99618.28;4969439;28;20229;-62
2022/09/16 00:49:30;;;;;;;577.05;525.75;;;14.90;99.90;;;14.79;100.00;99620.28;4991389;28;20673;-63
2022/09/16 00:52:04;;;;;;;562.28;511.08;;;14.80;99.90;;;14.73;100.00;99616.84;4965214;28;20203;-63
2022/09/16 00:54:36;;;;;;;562.97;512.15;;;14.80;99.90;;;14.73;100.00;99621.28;4978118;28;20225;-63
2022/09/16 00:57:07;;;;;;;578.03;525.10;;;14.70;99.90;;;14.73;100.00;99614.19;4981391;28;20207;-62
2022/09/16 00:59:43;;;;;;;566.95;515.58;;;14.80;99.90;;;14.77;100.00;99617.66;4971093;28;20671;-62
2022/09/16 01:02:15;;;;;;;556.97;506.42;;;14.80;99.90;;;14.73;100.00;99616.84;5019698;28;20556;-62
2022/09/16 01:05:06;;;;;;;555.08;504.50;;;14.70;99.90;;;14.77;100.00;99616.78;4971335;28;20238;-62
2022/09/16 01:07:54;;;;;;;548.78;498.77;;;14.70;99.90;;;14.70;100.00;99600.06;4952921;28;20219;-63
2022/09/16 01:10:25;;;;;;;545.97;495.35;;;14.60;99.90;;;14.73;100.00;99622.16;4967528;28;20230;-62
2022/09/16 01:13:13;;;;;;;551.03;500.17;;;14.70;99.90;;;14.64;100.00;99619.69;4957324;28;20199;-62
2022/09/16 01:16:17;;;;;;;548.95;499.10;;;14.60;99.90;;;14.60;100.00;99622.44;4989520;28;20203;-62
2022/09/16 01:18:46;;;;;;;530.17;481.42;;;;;;;14.62;100.00;99623.28;4969253;28;20207;-62
2022/09/16 01:22:13;;;;;;;547.58;497.80;;;14.60;99.90;;;14.60;100.00;99633.09;4979336;28;20211;-62
2022/09/16 01:24:51;;;;;;;542.00;491.35;;;14.60;99.90;;;14.56;100.00;99642.91;4950510;28;20235;-63
2022/09/16 01:27:52;;;;;;;540.15;489.67;;;14.60;99.90;;;14.51;100.00;99622.63;4992080;28;20226;-63
2022/09/16 01:31:24;;;;;;;529.30;478.75;;;14.60;99.90;;;14.56;100.00;99624.28;4988291;28;20651;-63
2022/09/16 01:34:27;;;;;;;539.60;487.77;;;14.90;99.90;;;14.55;100.00;99613.69;4962085;28;20230;-63
2022/09/16 01:37:07;;;;;;;533.65;483.02;;;14.60;99.90;;;14.52;100.00;99590.69;5000404;28;20206;-63
2022/09/16 01:40:10;;;;;;;545.97;494.38;;;14.50;99.90;;;14.51;100.00;99588.06;4997077;28;20283;-63
2022/09/16 01:43:18;;;;;;;545.72;493.77;;;14.50;99.90;;;14.47;100.00;99570.41;4971378;28;20210;-63
2022/09/16 01:46:18;;;;;;;537.30;486.25;;;14.40;99.90;;;14.48;100.00;99585.44;4996808;28;20673;-63
2022/09/16 01:48:57;;;;;;;538.90;487.80;;;14.40;99.90;;;14.37;100.00;99559.03;4987615;28;20207;-64
2022/09/16 01:51:40;;;;;;;544.55;492.20;;;14.50;99.90;;;14.46;100.00;99593.47;4997637;28;20214;-64
2022/09/16 01:54:38;;;;;;;544.03;492.55;;;14.50;99.90;;;14.47;100.00;99624.47;4999431;28;20243;-63
2022/09/16 01:57:17;;;;;;;542.05;490.05;;;14.30;99.90;;;14.50;100.00;99626.19;4981151;28;20207;-63
2022/09/16 02:00:02;;;;;;;542.33;490.73;;;14.40;99.90;;;14.50;100.00;99616.44;4988905;28;20286;-63
2022/09/16 02:02:58;;;;;;;548.08;495.58;;;14.40;99.90;;;14.55;100.00;99627.00;4964336;28;20204;-63
2022/09/16 02:05:38;;;;;;;543.55;491.80;;;14.50;99.90;;;14.53;100.00;99645.66;4977903;28;20227;-63
2022/09/16 02:08:12;;;;;;;557.40;504.75;;;14.50;99.90;;;14.46;100.00;99641.34;4981489;28;20215;-63
2022/09/16 02:10:46;;;;;;;537.75;487.38;;;14.50;99.90;;;14.52;100.00;99646.56;5004544;28;20226;-63
2022/09/16 02:13:36;;;;;;;541.60;490.60;;;14.40;99.90;;;14.41;100.00;99651.16;4968435;28;20225;-64
2022/09/16 02:16:10;;;;;;;533.67;483.20;;;14.40;99.90;;;14.39;100.00;99658.31;4987151;28;20215;-63
2022/09/16 02:18:41;;;;;;;550.22;498.52;;;14.30;99.90;;;14.31;100.00;99665.53;4997235;28;20227;-63
2022/09/16 02:21:13;;;;;;;573.05;517.70;;;15.40;99.90;;;14.25;100.00;99670.94;4984157;28;20199;-63
2022/09/16 02:23:50;;;;;;;539.15;489.17;;;14.20;99.90;;;14.16;100.00;99677.31;4982839;28;20242;-63
2022/09/16 02:26:25;;;;;;;529.88;480.00;;;14.30;99.90;;;14.23;100.00;99684.25;4986667;28;20210;-63
2022/09/16 02:28:54;;;;;;;540.58;489.65;;;14.30;99.90;;;14.30;100.00;99685.94;4968028;28;20207;-64
2022/09/16 02:31:32;;;;;;;542.75;493.55;;;14.30;99.90;;;14.32;100.00;99678.81;5017321;28;20254;-64
2022/09/16 02:34:10;;;;;;;546.72;494.60;;;14.40;99.90;;;14.36;100.00;99682.28;4987485;28;20242;-62
2022/09/16 02:36:40;;;;;;;550.70;498.25;;;14.40;99.90;;;14.38;100.00;99668.06;5004128;28;20691;-63
2022/09/16 02:39:15;;;;;;;540.83;490.92;;;14.40;99.90;;;14.44;100.00;99656.47;4972423;28;20223;-63
2022/09/16 02:41:43;;;;;;;545.63;494.15;;;14.40;99.90;;;14.46;100.00;99649.31;4980813;28;20672;-63
2022/09/16 02:44:11;;;;;;;552.40;501.33;;;14.50;99.90;;;14.51;100.00;99655.44;4978326;28;20235;-63
2022/09/16 02:47:12;;;;;;;539.00;488.35;;;16.50;99.90;;;14.47;100.00;99631.59;4986034;28;20211;-63
2022/09/16 02:50:08;;;;;;;544.15;492.58;;;14.40;99.90;;;14.47;100.00;99627.13;4981591;28;20210;-64
2022/09/16 02:53:00;;;;;;;533.92;482.70;;;14.40;99.90;;;14.51;100.00;99628.84;5002242;28;20224;-63
2022/09/16 02:56:04;;;;;;;538.88;486.90;;;14.40;99.90;;;14.49;100.00;99640.41;4982043;28;20199;-63
2022/09/16 02:58:34;;;;;;;520.08;471.33;;;;;;;14.49;100.00;99659.03;5001724;28;20234;-64
2022/09/16 03:01:02;;;;;;;522.97;473.95;;;;;;;14.51;100.00;99655.44;4969106;28;20203;-63
2022/09/16 03:03:30;;;;;;;553.08;501.48;;;;;;;14.51;100.00;99646.56;4996784;28;20239;-63
2022/09/16 03:06:25;;;;;;;539.20;488.77;;;14.40;99.90;;;14.46;100.00;99633.38;4993665;28;20223;-63
2022/09/16 03:08:58;;;;;;;535.30;484.90;;;14.50;99.90;;;14.46;100.00;99620.06;4990189;28;20196;-63
2022/09/16 03:11:44;;;;;;;532.35;482.15;;;14.40;99.90;;;14.42;100.00;99610.41;4973713;28;20208;-63
2022/09/16 03:14:31;;;;;;;524.60;474.63;;;;;;;14.45;100.00;99612.13;5009987;28;20233;-63
2022/09/16 03:17:26;;;;;;;523.42;474.48;;;14.40;99.90;;;14.49;100.00;99609.38;5010764;28;20207;-63
2022/09/16 03:20:28;;;;;;;541.08;489.88;;;14.50;99.90;;;14.55;100.00;99619.00;4996902;28;20230;-63
2022/09/16 03:23:37;;;;;;;527.20;476.85;;;14.40;99.90;;;14.47;100.00;99594.34;4996459;28;20207;-63
2022/09/16 03:26:24;;;;;;;527.17;476.38;;;;;;;14.51;100.00;99602.22;4993403;28;20663;-64
2022/09/16 03:29:22;;;;;;;533.80;483.23;;;14.50;99.90;;;14.54;100.00;99590.66;4993275;28;20207;-63
2022/09/16 03:32:07;;;;;;;536.20;485.05;;;14.50;99.90;;;14.51;100.00;99588.06;4998379;28;20207;-63
2022/09/16 03:34:35;;;;;;;529.15;478.83;;;;;;;14.41;100.00;99619.25;4974277;28;20611;-63
2022/09/16 03:37:09;;;;;;;535.58;484.98;;;14.50;99.90;;;14.34;100.00;99634.44;4993310;28;20211;-63
2022/09/16 03:39:55;;;;;;;545.47;493.73;;;14.40;99.90;;;14.37;100.00;99641.50;4975509;28;20245;-63
2022/09/16 03:42:31;;;;;;;538.20;487.23;;;14.40;99.90;;;14.39;100.00;99648.53;5008934;28;20203;-64
2022/09/16 03:45:09;;;;;;;538.78;489.30;;;14.40;99.90;;;14.40;100.00;99665.38;4976270;28;20215;-63
2022/09/16 03:47:55;;;;;;;541.55;490.13;;;14.40;99.90;;;14.38;100.00;99654.75;4969185;28;20199;-64
2022/09/16 03:50:33;;;;;;;534.35;484.63;;;14.50;99.90;;;14.40;100.00;99660.94;4983528;28;20203;-64
2022/09/16 03:53:23;;;;;;;544.40;493.83;;;14.50;99.90;;;14.41;100.00;99660.03;4981652;28;20199;-64
2022/09/16 03:55:55;;;;;;;540.30;490.75;;;14.50;99.90;;;14.46;100.00;99648.44;4972470;28;20200;-64
2022/09/16 03:58:23;;;;;;;541.00;491.15;;;14.50;99.90;;;14.42;100.00;99629.00;4976280;28;20211;-64
2022/09/16 04:00:52;;;;;;;542.38;492.80;;;;;;;14.41;100.00;99628.09;4994006;28;20210;-63
2022/09/16 04:03:21;;;;;;;551.47;501.02;;;;;;;14.40;100.00;99626.34;5012796;28;20223;-63
2022/09/16 04:06:05;;;;;;;549.47;498.15;;;14.50;99.90;;;14.41;100.00;99625.44;4967091;28;20199;-64
2022/09/16 04:08:43;;;;;;;567.70;513.78;;;14.50;99.90;;;14.38;100.00;99638.81;4969940;28;20199;-63
2022/09/16 04:11:37;;;;;;;567.85;515.30;;;14.40;99.90;;;14.13;100.00;99626.84;4989889;28;20199;-66
2022/09/16 04:14:21;;;;;;;548.83;496.27;;;14.30;99.90;;;14.11;100.00;99649.91;4996812;28;20231;-65
2022/09/16 04:17:09;;;;;;;551.25;498.98;;;14.30;99.90;;;14.20;100.00;99662.16;4989933;28;20206;-65
2022/09/16 04:19:54;;;;;;;538.33;487.30;;;14.20;99.90;;;14.14;100.00;99663.16;5018677;28;20242;-66
2022/09/16 04:22:33;;;;;;;557.65;505.02;;;14.20;99.90;;;14.14;100.00;99663.16;5019892;22;20214;-83
2022/09/16 04:25:20;;;;;;;549.90;498.55;;;14.20;99.90;;;14.18;100.00;99670.19;5004363;28;20242;-84
2022/09/16 04:28:13;;;;;;;555.65;502.95;;;14.20;99.90;;;14.14;100.00;99673.78;4994390;28;20214;-86
2022/09/16 04:31:12;;;;;;;540.88;491.02;;;14.20;99.90;;;14.09;100.00;99660.59;4986190;28;20216;-84
2022/09/16 04:34:05;;;;;;;543.72;492.25;;;14.20;99.90;;;14.15;100.00;99656.94;4981172;28;20211;-83
2022/09/16 04:36:48;;;;;;;539.70;490.15;;;14.20;99.90;;;14.08;100.00;99666.81;5001910;28;20207;-87
2022/09/16 04:39:16;;;;;;;540.50;490.50;;;14.20;99.90;;;14.01;100.00;99674.91;4995700;28;20224;-82
2022/09/16 04:41:44;;;;;;;544.38;494.42;;;14.20;99.90;;;13.97;100.00;99679.41;5004420;28;20207;-85
2022/09/16 04:44:14;;;;;;;549.75;498.92;;;;;;;14.01;100.00;99686.41;4997628;28;20232;-81
2022/09/16 04:46:42;;;;;;;549.38;499.23;;;;;;;13.92;100.00;99678.59;5000501;28;20204;-82
2022/09/16 04:49:11;;;;;;;550.20;499.77;;;14.00;99.90;;;13.89;100.00;99688.41;4999933;28;20204;-82
2022/09/16 04:51:39;;;;;;;553.85;502.90;;;14.10;99.90;;;13.97;100.00;99678.53;5001599;28;20223;-82
2022/09/16 04:54:08;;;;;;;551.70;501.02;;;14.00;99.90;;;13.97;100.00;99679.41;4983626;28;20228;-82
2022/09/16 04:56:36;;;;;;;551.97;501.20;;;;;;;13.90;100.00;99679.53;5007098;28;20235;-87
2022/09/16 04:59:05;;;;;;;542.33;492.20;;;;;;;13.87;100.00;99675.13;5006252;28;20238;-86
2022/09/16 05:01:37;;;;;;;551.53;500.38;;;14.00;99.90;;;13.94;100.00;99682.09;5001452;28;20223;-83
2022/09/16 05:04:06;;;;;;;539.63;489.50;;;14.00;99.90;;;13.99;100.00;99660.75;5002080;28;20237;-84
2022/09/16 05:06:40;;;;;;;556.63;504.63;;;14.10;99.90;;;14.06;100.00;99659.75;4996586;28;20205;-83
2022/09/16 05:09:11;;;;;;;544.40;493.17;;;14.10;99.90;;;14.10;100.00;99666.78;4996372;28;20568;-81
2022/09/16 05:11:40;;;;;;;539.92;489.73;;;14.10;99.90;;;14.03;100.00;99665.13;4997098;28;20200;-83
2022/09/16 05:14:17;;;;;;;545.10;494.17;;;14.10;99.90;;;14.06;100.00;99678.38;5005355;28;20248;-82
2022/09/16 05:16:45;;;;;;;544.63;494.35;;;;;;;13.91;100.00;99671.53;5007223;28;20219;-82
2022/09/16 05:19:14;;;;;;;533.63;483.48;;;;;;;13.94;100.00;99676.78;5000573;28;20255;-82
2022/09/16 05:21:43;;;;;;;553.40;501.92;;;;;;;13.93;100.00;99695.44;5008791;28;20227;-81
2022/09/16 05:24:12;;;;;;;537.88;487.58;;;14.00;99.90;;;13.88;100.00;99697.28;5002492;28;20232;-82
2022/09/16 05:26:44;;;;;;;525.17;476.13;;;;;;;13.87;100.00;99692.88;4985844;28;20243;-81
2022/09/16 05:29:15;;;;;;;533.08;482.83;;;13.90;99.90;;;13.93;100.00;99711.38;5009767;28;20216;-85
2022/09/16 05:31:47;;;;;;;528.40;478.48;;;14.00;99.90;;;13.85;100.00;99721.25;5007553;28;20658;-86
2022/09/16 05:34:27;;;;;;;537.55;487.60;;;14.00;99.90;;;13.80;100.00;99734.59;5008504;28;20223;-81
2022/09/16 05:36:56;;;;;;;529.92;480.13;;;;;;;13.90;100.00;99741.53;5009180;28;20211;-82
2022/09/16 05:39:24;;;;;;;533.88;483.60;;;;;;;13.93;100.00;99743.28;5004726;28;20322;-81
2022/09/16 05:41:56;;;;;;;529.15;479.67;;;14.00;99.90;;;13.90;100.00;99749.50;5005799;28;20204;-81
2022/09/16 05:44:26;;;;;;;537.10;486.30;;;14.00;99.90;;;13.81;100.00;99743.47;5009763;28;20238;-82
2022/09/16 05:46:54;;;;;;;532.35;482.15;;;14.00;99.90;;;13.78;100.00;99757.66;5010547;28;20208;-82
2022/09/16 05:49:23;;;;;;;535.47;484.30;;;;;;;13.77;100.00;99766.53;5011046;28;20223;-81
2022/09/16 05:51:51;;;;;;;530.65;480.40;;;14.00;99.90;;;13.85;100.00;99767.31;5008277;28;20235;-81
2022/09/16 05:54:22;;;;;;;533.40;483.42;;;;;;;13.82;100.00;99771.78;5012403;28;20228;-81
2022/09/16 05:56:51;;;;;;;538.67;488.30;;;;;;;13.85;100.00;99772.63;5012832;28;20223;-82
2022/09/16 05:59:19;;;;;;;536.47;486.42;;;;;;;13.92;100.00;99776.06;5008495;28;20226;-81
2022/09/16 06:01:47;;;;;;;543.88;492.70;;;;;;;13.83;100.00;99774.44;5012860;28;20211;-82
2022/09/16 06:04:16;;;;;;;542.85;492.33;;;;;;;13.92;100.00;99770.75;5013487;28;20224;-80
2022/09/16 06:06:45;;;;;;;535.72;485.95;;;14.00;99.90;;;13.96;100.00;99773.34;4996624;28;20208;-81
2022/09/16 06:09:18;;;;;;;536.97;486.80;;;;;;;14.00;100.00;99776.81;5004648;28;20589;-82
2022/09/16 06:11:50;;;;;;;535.03;485.13;;;14.10;99.90;;;14.03;100.00;99763.50;5010166;28;20559;-81
2022/09/16 06:14:21;;;;;;;545.38;494.48;;;;;;;14.05;100.00;99767.88;5007655;28;20223;-81
2022/09/16 06:16:49;;;;;;;547.35;496.58;;;14.10;99.90;;;14.13;100.00;99778.41;5007410;28;20208;-80
2022/09/16 06:19:19;;;;;;;538.90;488.25;;;;;;;14.16;100.00;99762.38;4974979;28;20217;-80
2022/09/16 06:21:47;;;;;;;536.13;486.23;;;14.20;99.90;;;14.24;100.00;99773.78;5011537;28;20208;-80
2022/09/16 06:24:17;;;;;;;548.42;497.33;;;14.20;99.90;;;14.26;100.00;99768.44;5007476;28;20239;-81
2022/09/16 06:26:46;;;;;;;540.35;490.17;;;14.30;99.90;;;14.25;100.00;99770.22;5004948;28;20204;-80
2022/09/16 06:29:16;;;;;;;538.47;488.65;;;14.30;99.90;;;14.35;100.00;99787.81;4998840;28;20208;-84
2022/09/16 06:31:44;;;;;;;553.30;502.08;;;;;;;14.37;100.00;99787.78;5002149;28;20459;-82
2022/09/16 06:34:17;;;;;;;546.95;496.08;;;14.40;99.90;;;14.32;100.00;99798.50;5007104;28;20299;-83
2022/09/16 06:36:46;;;;;;;548.75;498.42;;;;;;;14.29;100.00;99795.84;4988201;28;20234;-80
2022/09/16 06:39:16;;;;;;;545.20;495.05;;;14.40;99.90;;;14.37;100.00;99806.41;5009508;28;20223;-81
2022/09/16 06:41:45;;;;;;;560.17;509.25;;;;;;;14.41;100.00;99803.66;5011059;28;20212;-81
2022/09/16 06:44:13;;;;;;;557.42;506.65;;;;;;;14.56;100.00;99807.88;5010327;28;20224;-81
2022/09/16 06:46:43;;;;;;;564.00;513.60;;;;;;;14.53;100.00;99794.63;5011267;28;20200;-80
2022/09/16 06:49:11;;;;;;;575.92;524.55;;;;;;;14.64;100.00;99800.66;5001858;28;20212;-81
2022/09/16 06:51:40;;;;;;;567.53;516.40;;;14.70;99.90;;;14.73;100.00;99796.94;5007499;28;20223;-81
2022/09/16 06:54:09;;;;;;;571.10;520.38;;;;;;;14.79;100.00;99793.28;5006483;28;20234;-83
2022/09/16 06:56:38;;;;;;;573.42;522.78;;;;;;;14.81;100.00;99781.72;4990857;28;20637;-81
2022/09/16 06:59:07;;;;;;;570.83;520.78;;;14.80;99.90;;;14.79;100.00;99764.88;5005731;28;20201;-81
2022/09/16 07:01:36;;;;;;;588.90;537.22;;;;;;;14.84;100.00;99768.34;5008165;28;20228;-81
2022/09/16 07:04:12;;;;;;;585.03;534.03;;;14.80;99.90;;;14.83;100.00;99757.72;4994352;28;20224;-81
2022/09/16 07:06:41;;;;;;;584.10;532.67;;;;;;;14.94;100.00;99764.59;4997926;28;20211;-82
2022/09/16 07:09:29;;;;;;;590.05;537.83;;;;;;;15.09;100.00;99758.09;4999816;28;20219;-82
2022/09/16 07:11:58;;;;;;;587.53;536.28;;;15.10;99.90;;;15.08;100.00;99742.16;5001048;28;20208;-82
2022/09/16 07:14:27;;;;;;;600.67;549.30;;;15.00;99.90;;;14.94;100.00;99698.03;5000214;28;20232;-81
2022/09/16 07:16:55;;;;;;;587.55;537.47;;;;;;;15.12;100.00;99712.75;4998040;28;20212;-80
2022/09/16 07:19:25;;;;;;;599.60;548.33;;;15.10;99.90;;;15.12;100.00;99703.88;5004766;28;20219;-81
2022/09/16 07:21:53;;;;;;;601.35;549.85;;;;;;;15.14;100.00;99692.31;4972766;28;20238;-80
2022/09/16 07:24:22;;;;;;;602.47;550.70;;;;;;;15.18;100.00;99698.44;4999981;28;20323;-85
2022/09/16 07:26:50;;;;;;;601.47;549.17;;;;;;;15.15;100.00;99687.84;4998119;28;20200;-83
2022/09/16 07:29:19;;;;;;;606.60;555.05;;;;;;;15.26;100.00;99713.34;5006851;28;20216;-82
2022/09/16 07:31:48;;;;;;;593.40;543.33;;;;;;;15.35;100.00;99725.59;4999923;28;20227;-80
2022/09/16 07:34:16;;;;;;;601.33;550.33;;;;;;;15.27;100.00;99711.56;5001746;28;20238;-82
2022/09/16 07:36:47;;;;;;;603.95;553.03;;;15.30;99.90;;;15.23;100.00;99704.53;5001406;28;20606;-82
2022/09/16 07:39:17;;;;;;;610.03;559.33;;;15.20;99.90;;;15.20;100.00;99721.47;4997227;28;20674;-81
2022/09/16 07:41:49;;;;;;;603.85;553.28;;;;;;;15.23;100.00;99715.19;4999848;28;20243;-82
2022/09/16 07:44:19;;;;;;;601.40;549.97;;;15.30;99.90;;;15.26;100.00;99704.47;4999825;28;20224;-82
2022/09/16 07:46:49;;;;;;;610.17;558.92;;;15.30;99.90;;;15.24;100.00;99690.31;5000575;28;20238;-81
2022/09/16 07:49:18;;;;;;;612.88;561.30;;;;;;;15.31;100.00;99678.63;5002780;28;20208;-82
2022/09/16 07:51:47;;;;;;;607.70;557.28;;;;;;;15.28;100.00;99660.03;5000108;28;20208;-82
2022/09/16 07:54:18;;;;;;;621.70;570.03;;;15.40;99.90;;;15.36;100.00;99661.63;5000285;28;20227;-80
2022/09/16 07:56:47;;;;;;;615.00;563.30;;;;;;;15.44;100.00;99665.88;5002339;28;20692;-81
2022/09/16 07:59:17;;;;;;;613.55;562.42;;;15.50;99.90;;;15.53;100.00;99679.88;5000344;28;20203;-81
2022/09/16 08:01:48;;;;;;;618.38;566.80;;;15.70;99.90;;;15.70;100.00;99705.31;4989384;28;20603;-81
2022/09/16 08:04:18;;;;;;;619.55;568.13;;;15.70;99.90;;;15.80;100.00;99699.75;4998735;28;20230;-80
2022/09/16 08:06:46;;;;;;;621.60;570.83;;;;;;;15.90;100.00;99716.41;5000899;28;20222;-80
2022/09/16 08:09:15;;;;;;;619.75;567.83;;;;;;;15.79;100.00;99695.31;4995444;28;20200;-80
2022/09/16 08:12:04;;;;;;;618.42;567.17;;;15.70;99.90;;;15.70;100.00;99679.56;4993785;28;20216;-84
2022/09/16 08:14:33;;;;;;;632.90;580.53;;;15.80;99.90;;;15.79;100.00;99682.00;5002521;28;20714;-80
2022/09/16 08:17:02;;;;;;;631.42;580.67;;;;;;;15.80;100.00;99683.75;5004442;28;20212;-81
2022/09/16 08:19:30;;;;;;;631.13;580.30;;;;;;;15.81;100.00;99688.16;5003480;28;20217;-81
2022/09/16 08:21:58;;;;;;;625.72;574.85;;;;;;;15.86;100.00;99650.72;5003758;28;20239;-79
2022/09/16 08:24:26;;;;;;;634.20;582.95;;;;;;;15.81;100.00;99628.63;5008241;28;20243;-83
2022/09/16 08:26:55;;;;;;;637.90;585.83;;;;;;;15.83;100.00;99638.34;4990163;28;20212;-81
2022/09/16 08:29:24;;;;;;;631.88;580.65;;;;;;;15.84;100.00;99620.56;5008471;28;20219;-82
2022/09/16 08:31:52;;;;;;;633.33;581.78;;;;;;;15.86;100.00;99608.94;5003485;28;20223;-81
2022/09/16 08:34:21;;;;;;;639.55;588.20;;;;;;;15.85;100.00;99608.97;4996361;28;20713;-82
2022/09/16 08:36:49;;;;;;;637.42;585.58;;;;;;;15.89;100.00;99614.19;5000725;28;20216;-81
2022/09/16 08:39:18;;;;;;;646.08;594.67;;;;;;;15.86;100.00;99605.41;5003804;28;20200;-81
2022/09/16 08:42:04;;;;;;;643.63;591.67;;;16.00;99.90;;;16.00;100.00;99622.78;5014341;28;20223;-81
2022/09/16 08:44:41;;;;;;;632.10;581.25;;;;;;;16.18;100.00;99649.91;5002646;28;20247;-81
2022/09/16 08:47:33;;;;;;;641.78;590.22;;;16.10;99.90;;;16.20;93.67;99544.03;5006600;28;20212;-83
2022/09/16 08:50:14;;;;;;;638.65;587.35;;;16.20;99.90;;;16.37;92.19;99548.91;5007496;28;20220;-81
2022/09/16 08:52:44;;;;;;;639.20;588.17;;;16.30;99.90;;;16.23;91.45;99515.47;4991915;28;20586;-81
2022/09/16 08:55:36;;;;;;;645.00;593.50;;;16.40;99.90;;;16.61;92.77;99565.06;4985374;28;20221;-82
2022/09/16 08:58:30;;;;;;;647.63;596.30;;;16.70;99.90;;;17.12;91.30;99604.53;5011438;28;20204;-84
2022/09/16 09:01:05;;;;;;;665.65;613.42;;;17.00;99.90;;;17.15;88.21;99550.13;4990443;28;20243;-80
2022/09/16 09:03:40;;;;;;;668.25;616.75;;;17.00;99.90;;;17.14;86.69;99527.03;4977999;28;20210;-80
2022/09/16 09:06:54;;;;;;;672.78;620.33;;;17.00;99.90;;;16.92;84.87;99460.06;5011042;28;20212;-82
2022/09/16 09:09:41;;;;;;;657.58;606.33;;;;;;;17.53;88.87;99591.66;5012233;28;20210;-80
2022/09/16 09:12:35;;;;;;;679.40;626.95;;;17.50;99.90;;;17.51;86.50;99540.03;5012072;28;20216;-80
2022/09/16 09:15:29;;;;;;;692.53;640.45;;;17.20;99.90;;;16.97;83.84;99434.09;5007838;28;20223;-79
2022/09/16 09:17:57;;;;;;;687.85;635.78;;;;;;;17.06;87.89;99494.34;4984192;28;20217;-80
2022/09/16 09:21:03;;;;;;;702.92;650.17;;;17.00;99.90;;;16.84;85.26;99440.72;5010210;28;20211;-80
2022/09/16 09:23:51;;;;;;;702.25;649.65;;;17.10;99.90;;;17.05;85.90;99481.91;4994527;28;20216;-80
2022/09/16 09:26:38;;;;;;;692.70;640.97;;;;;;;17.06;85.67;99455.16;5014427;28;20290;-82
2022/09/16 09:29:18;;;;;;;708.55;656.15;;;17.30;99.90;;;17.27;83.56;99457.09;5015860;28;20208;-81
2022/09/16 09:32:02;;;;;;;708.25;656.13;;;17.40;99.90;;;17.23;82.03;99419.84;5021694;28;20215;-82
2022/09/16 09:35:02;;;;;;;735.88;682.08;;;17.30;99.90;;;17.13;82.63;99405.06;5006630;28;20224;-82
2022/09/16 09:38:11;;;;;;;715.67;662.70;;;18.20;99.90;;;16.83;81.75;99338.38;5004619;28;20211;-83
2022/09/16 09:40:53;;;;;;;723.20;669.92;;;17.20;99.90;;;16.89;81.32;99339.97;5007659;28;20220;-81
2022/09/16 09:43:32;;;;;;;720.60;667.78;;;17.20;99.90;;;16.93;80.02;99325.63;5001244;28;20211;-81
2022/09/16 09:46:26;;;;;;;726.38;673.00;;;17.40;99.90;;;16.99;81.00;99349.44;5001432;28;20237;-81
2022/09/16 09:49:17;;;;;;;720.47;667.20;;;17.00;99.90;;;16.99;81.01;99346.75;5004753;28;20204;-80
2022/09/16 09:51:52;;;;;;;732.08;679.22;;;17.40;99.90;;;17.27;82.37;99408.13;5002837;28;20207;-80
2022/09/16 09:54:31;;;;;;;740.45;686.80;;;17.40;99.90;;;17.37;84.00;99430.06;4984190;28;20582;-81
2022/09/16 09:57:40;;;;;;;750.65;696.97;;;17.60;99.90;;;17.76;81.35;99444.72;5002060;28;20640;-81
2022/09/16 10:00:17;;;;;;;746.60;692.25;;;17.70;99.90;;;17.60;80.39;99392.69;4990805;28;20215;-80
2022/09/16 10:02:45;;;;;;;747.17;694.25;;;17.90;99.90;;;17.86;79.48;99389.09;5002503;28;20247;-81
2022/09/16 10:05:28;;;;;;;759.40;705.30;;;18.20;99.90;;;18.38;82.29;99488.84;4993946;28;20231;-80
2022/09/16 10:08:21;;;;;;;764.10;710.60;;;18.30;99.90;;;18.17;76.60;99360.25;4994452;28;20211;-80
2022/09/16 10:10:53;;;;;;;760.50;707.53;;;18.30;99.90;;;18.11;75.17;99330.19;4953252;28;20228;-80
2022/09/16 10:13:24;;;;;;;766.92;713.10;;;18.20;99.90;;;17.98;76.02;99304.84;5004999;28;20654;-77
2022/09/16 10:16:15;;;;;;;784.20;730.28;;;18.30;99.90;;;18.21;75.66;99343.19;5008561;28;20228;-79
2022/09/16 10:18:43;;;;;;;792.78;738.42;;;18.50;99.90;;;18.52;75.05;99358.88;5002645;28;20211;-80
2022/09/16 10:21:15;;;;;;;793.60;739.50;;;18.80;99.90;;;18.57;72.84;99309.63;4986251;28;20215;-79
2022/09/16 10:23:56;;;;;;;788.28;734.28;;;18.70;99.90;;;18.93;74.28;99350.97;5018557;23;20229;-86
2022/09/16 10:26:27;;;;;;;801.60;747.08;;;19.00;99.90;;;18.96;73.15;99337.44;4979368;28;20223;-86
2022/09/16 10:29:02;;;;;;;805.17;750.00;;;18.80;99.90;;;18.16;72.26;99181.91;4958983;28;20224;-85
2022/09/16 10:31:40;;;;;;;807.67;752.97;;;18.70;99.90;;;18.26;76.32;99248.47;4955776;28;20236;-85
2022/09/16 10:34:37;;;;;;;809.25;754.83;;;18.70;99.90;;;18.21;78.76;99312.88;4956512;28;20225;-87
2022/09/16 10:37:13;;;;;;;815.65;761.33;;;18.80;99.90;;;18.34;76.28;99273.97;4970206;28;20218;-86
2022/09/16 10:39:57;;;;;;;825.65;771.60;;;19.20;99.90;;;18.85;75.93;99329.88;4968034;28;20217;-86
2022/09/16 10:42:28;;;;;;;825.85;771.30;;;19.50;99.90;;;19.12;74.00;99306.38;4966196;28;20233;-84
2022/09/16 10:45:14;;;;;;;836.45;781.17;;;19.60;99.90;;;19.40;74.43;99342.69;4981917;28;20236;-85
2022/09/16 10:47:50;;;;;;;849.40;794.22;;;19.80;99.90;;;19.46;73.26;99308.44;4970304;28;20205;-85
2022/09/16 10:50:19;;;;;;;856.28;800.95;;;19.70;99.90;;;19.12;74.24;99265.31;4970858;28;20212;-84